Time;durP1;ratioP1;P1;durP2;ratioP2;P2;SDS_P1;SDS_P2;PMS_P1;PMS_P2;Temp;Humidity;BMP_temperature;BMP_pressure;BME280_temperature;BME280_humidity;BME280_pressure;Samples;Min_cycle;Max_cycle;Signal;HPM_P1;HPM_P2
2023/06/25 00:00:39;;;;;;;5.43;4.80;;;22.20;69.50;;;;;;10224744;28;20277;-74
2023/06/25 00:05:40;;;;;;;7.70;5.33;;;22.20;69.90;;;;;;10218960;28;20228;-74
2023/06/25 00:10:41;;;;;;;5.60;5.00;;;22.10;71.10;;;;;;10229424;28;20230;-73
2023/06/25 00:15:41;;;;;;;7.17;4.93;;;22.00;72.20;;;;;;10217861;28;20305;-74
2023/06/25 00:20:42;;;;;;;5.17;4.43;;;22.00;71.70;;;;;;10225355;28;20234;-73
2023/06/25 00:25:43;;;;;;;6.23;5.63;;;21.90;71.40;;;;;;10222336;28;20656;-74
2023/06/25 00:30:43;;;;;;;6.77;5.67;;;21.90;73.20;;;;;;10218648;28;20234;-74
2023/06/25 00:35:50;;;;;;;6.50;5.70;;;21.80;74.90;;;;;;10215833;28;20216;-75
2023/06/25 00:40:51;;;;;;;6.63;5.43;;;21.70;75.50;;;;;;10226777;28;20699;-74
2023/06/25 00:45:54;;;;;;;5.43;4.93;;;21.60;76.20;;;;;;10228292;28;20226;-73
2023/06/25 00:51:00;;;;;;;7.17;5.30;;;21.50;76.60;;;;;;10223832;28;20231;-73
2023/06/25 00:56:01;;;;;;;6.10;5.50;;;21.40;77.20;;;;;;10230848;28;20231;-74
2023/06/25 01:01:05;;;;;;;8.30;5.50;;;21.20;77.50;;;;;;10231282;28;20290;-74
2023/06/25 01:06:18;;;;;;;5.57;5.07;;;21.20;78.30;;;;;;10237835;28;20228;-75
2023/06/25 01:11:19;;;;;;;6.10;5.50;;;21.10;78.80;;;;;;10234449;28;20235;-74
2023/06/25 01:16:20;;;;;;;6.20;5.57;;;21.00;78.80;;;;;;10223992;28;20635;-74
2023/06/25 01:21:23;;;;;;;6.47;5.70;;;20.90;79.20;;;;;;10228076;28;20652;-75
2023/06/25 01:26:24;;;;;;;7.30;5.43;;;20.80;79.80;;;;;;10226168;28;20224;-73
2023/06/25 01:31:25;;;;;;;7.30;4.90;;;20.70;80.00;;;;;;10233074;28;20657;-74
2023/06/25 01:36:26;;;;;;;6.20;5.33;;;20.60;80.40;;;;;;10230901;28;20227;-74
2023/06/25 01:41:26;;;;;;;6.23;5.20;;;20.50;81.20;;;;;;10231848;28;20215;-74
2023/06/25 01:46:27;;;;;;;6.47;5.20;;;20.50;81.60;;;;;;10229885;28;20247;-74
2023/06/25 01:51:27;;;;;;;6.33;5.10;;;20.50;81.90;;;;;;10231237;28;20239;-74
2023/06/25 01:56:28;;;;;;;7.40;5.33;;;20.40;82.40;;;;;;10221559;28;20322;-73
2023/06/25 02:01:29;;;;;;;6.63;5.60;;;20.30;83.10;;;;;;10229374;28;20230;-74
2023/06/25 02:06:29;;;;;;;6.47;5.43;;;20.20;83.40;;;;;;10224140;28;20316;-73
2023/06/25 02:11:30;;;;;;;6.07;5.47;;;20.20;83.30;;;;;;10224109;28;20800;-73
2023/06/25 02:16:31;;;;;;;6.17;5.30;;;20.20;83.40;;;;;;10227544;28;20223;-74
2023/06/25 02:21:31;;;;;;;5.97;5.37;;;20.20;83.40;;;;;;10224252;28;20231;-74
2023/06/25 02:26:32;;;;;;;7.03;6.00;;;20.20;83.40;;;;;;10230851;28;20248;-74
2023/06/25 02:31:33;;;;;;;5.90;5.13;;;20.20;83.30;;;;;;10223252;28;20232;-74
2023/06/25 02:36:36;;;;;;;6.10;5.50;;;20.10;83.40;;;;;;10223380;28;20725;-73
2023/06/25 02:41:37;;;;;;;5.37;4.87;;;20.00;84.20;;;;;;10229760;28;20306;-73
2023/06/25 02:46:37;;;;;;;6.93;5.47;;;20.00;85.00;;;;;;10226919;28;20322;-73
2023/06/25 02:51:38;;;;;;;6.80;5.50;;;19.90;85.30;;;;;;10221750;28;20261;-73
2023/06/25 02:56:38;;;;;;;5.77;5.27;;;19.80;85.50;;;;;;10223306;28;20283;-74
2023/06/25 03:01:39;;;;;;;6.10;5.47;;;19.70;86.30;;;;;;10230944;28;20522;-74
2023/06/25 03:06:40;;;;;;;6.03;5.43;;;19.80;86.40;;;;;;10225363;28;20228;-74
2023/06/25 03:11:40;;;;;;;6.43;5.70;;;19.80;86.40;;;;;;10224005;28;20231;-75
2023/06/25 03:16:41;;;;;;;7.67;5.93;;;19.80;86.80;;;;;;10220790;28;20228;-73
2023/06/25 03:21:41;;;;;;;7.27;6.50;;;19.70;87.10;;;;;;10224128;28;20355;-73
2023/06/25 03:26:42;;;;;;;9.13;6.20;;;19.60;88.30;;;;;;10220770;28;20247;-74
2023/06/25 03:31:43;;;;;;;6.23;5.63;;;19.40;89.10;;;;;;10225634;28;20690;-74
2023/06/25 03:36:44;;;;;;;7.67;5.77;;;19.40;89.80;;;;;;10226550;28;20219;-73
2023/06/25 03:41:44;;;;;;;6.60;5.90;;;19.40;90.20;;;;;;10230954;28;20234;-74
2023/06/25 03:46:45;;;;;;;9.10;6.60;;;19.30;90.30;;;;;;10232310;28;20220;-74
2023/06/25 03:51:45;;;;;;;9.83;6.40;;;19.30;90.40;;;;;;10225569;28;20435;-73
2023/06/25 03:56:46;;;;;;;7.20;6.43;;;19.30;90.60;;;;;;10231972;28;20322;-73
2023/06/25 04:01:46;;;;;;;6.67;5.60;;;19.40;90.70;;;;;;10237783;28;20243;-73
2023/06/25 04:06:47;;;;;;;8.90;5.70;;;19.40;91.00;;;;;;10217312;28;20285;-72
2023/06/25 04:11:50;;;;;;;6.50;5.77;;;19.50;90.60;;;;;;10218980;28;20224;-73
2023/06/25 04:16:51;;;;;;;9.07;7.00;;;19.60;90.50;;;;;;10226710;28;20886;-73
2023/06/25 04:21:51;;;;;;;12.93;7.43;;;19.70;90.40;;;;;;10223553;28;20269;-75
2023/06/25 04:26:52;;;;;;;15.27;8.03;;;19.70;90.60;;;;;;10222563;28;20781;-73
2023/06/25 04:31:52;;;;;;;19.20;9.10;;;19.80;90.80;;;;;;10229576;28;20227;-74
2023/06/25 04:36:53;;;;;;;16.97;9.13;;;19.90;90.80;;;;;;10222906;28;20986;-74
2023/06/25 04:41:54;;;;;;;17.83;9.50;;;20.10;90.70;;;;;;10229131;28;20226;-74
2023/06/25 04:46:54;;;;;;;19.67;10.10;;;20.40;90.00;;;;;;10233010;28;20215;-74
2023/06/25 04:51:55;;;;;;;18.87;10.00;;;20.50;89.60;;;;;;10229919;28;20235;-74
2023/06/25 04:56:55;;;;;;;15.77;8.50;;;20.60;89.20;;;;;;10222735;28;20232;-74
2023/06/25 05:01:59;;;;;;;12.03;8.07;;;20.70;88.80;;;;;;10236630;28;20236;-74
2023/06/25 05:06:59;;;;;;;15.03;8.93;;;20.90;88.00;;;;;;10229593;28;20598;-74
2023/06/25 05:12:00;;;;;;;16.53;9.47;;;22.70;83.80;;;;;;10230283;28;20233;-74
2023/06/25 05:17:00;;;;;;;15.50;8.50;;;24.80;74.30;;;;;;10221120;28;20219;-74
2023/06/25 05:22:01;;;;;;;14.03;7.10;;;26.00;69.40;;;;;;10220878;28;20270;-74
2023/06/25 05:27:02;;;;;;;7.50;5.73;;;26.70;66.60;;;;;;10228114;28;20227;-74
2023/06/25 05:32:05;;;;;;;5.00;4.60;;;27.60;63.50;;;;;;10220043;28;20240;-74
2023/06/25 05:37:05;;;;;;;5.60;4.40;;;28.30;59.90;;;;;;10228019;28;20224;-74
2023/06/25 05:42:06;;;;;;;5.57;5.07;;;29.30;57.70;;;;;;10229876;28;20228;-74
2023/06/25 05:47:06;;;;;;;5.37;4.60;;;29.80;56.40;;;;;;10235106;28;20281;-75
2023/06/25 05:52:07;;;;;;;4.70;4.30;;;30.70;54.50;;;;;;10235200;28;20227;-75
2023/06/25 05:57:08;;;;;;;5.43;4.93;;;31.20;52.80;;;;;;10235210;28;20258;-75
2023/06/25 06:02:09;;;;;;;5.00;4.60;;;31.50;51.90;;;;;;10232707;28;20670;-75
2023/06/25 06:07:09;;;;;;;5.20;4.80;;;32.20;51.00;;;;;;10220632;28;20228;-74
2023/06/25 06:12:10;;;;;;;5.73;5.03;;;32.80;49.30;;;;;;10226445;28;20787;-74
2023/06/25 06:17:11;;;;;;;4.87;4.37;;;33.00;48.90;;;;;;10220498;28;20223;-73
2023/06/25 06:22:12;;;;;;;5.30;4.80;;;33.80;47.20;;;;;;10225632;28;20223;-74
2023/06/25 06:27:13;;;;;;;4.60;4.30;;;33.40;47.30;;;;;;10226123;28;20234;-73
2023/06/25 06:32:14;;;;;;;6.27;4.70;;;34.10;45.50;;;;;;10220836;28;20240;-73
2023/06/25 06:37:14;;;;;;;4.57;4.03;;;35.30;43.60;;;;;;10225864;28;20587;-73
2023/06/25 06:42:15;;;;;;;4.77;4.27;;;36.60;41.60;;;;;;10217705;28;20718;-73
2023/06/25 06:47:15;;;;;;;5.93;4.53;;;37.10;42.00;;;;;;10224670;28;20276;-73
2023/06/25 06:52:16;;;;;;;4.77;4.37;;;37.90;40.30;;;;;;10220274;28;20271;-74
2023/06/25 06:57:17;;;;;;;4.80;4.30;;;38.60;38.70;;;;;;10225668;28;20234;-74
2023/06/25 07:02:18;;;;;;;4.77;4.40;;;39.10;38.40;;;;;;10244633;28;20232;-74
2023/06/25 07:07:19;;;;;;;4.83;4.33;;;39.30;36.60;;;;;;10226650;28;20605;-75
2023/06/25 07:12:20;;;;;;;5.10;4.67;;;40.30;36.20;;;;;;10223984;28;20250;-75
2023/06/25 07:17:21;;;;;;;5.20;4.70;;;41.20;34.50;;;;;;10219382;28;20224;-75
2023/06/25 07:22:22;;;;;;;4.83;4.43;;;41.50;33.40;;;;;;10222159;28;20227;-76
2023/06/25 07:27:25;;;;;;;4.68;4.38;;;42.10;33.30;;;;;;10225960;28;20286;-75
2023/06/25 07:32:25;;;;;;;5.07;4.45;;;42.00;32.70;;;;;;10222731;28;20232;-75
2023/06/25 07:37:26;;;;;;;4.78;4.28;;;43.20;31.90;;;;;;10225807;28;20707;-75
2023/06/25 07:42:27;;;;;;;5.03;4.45;;;42.90;31.80;;;;;;10233549;28;20236;-75
2023/06/25 07:47:27;;;;;;;6.72;5.43;;;43.90;30.80;;;;;;10221375;28;20226;-75
2023/06/25 07:52:28;;;;;;;5.90;4.80;;;42.40;31.40;;;;;;10228238;28;20279;-75
2023/06/25 07:57:28;;;;;;;4.80;4.40;;;43.90;30.70;;;;;;10225646;28;20223;-75
2023/06/25 08:02:29;;;;;;;4.93;4.53;;;42.20;30.90;;;;;;10237152;28;20238;-75
2023/06/25 08:07:29;;;;;;;4.47;4.13;;;40.40;32.50;;;;;;10221435;28;20215;-75
2023/06/25 08:12:30;;;;;;;5.30;4.80;;;42.30;31.90;;;;;;10220497;28;20318;-75
2023/06/25 08:17:30;;;;;;;5.18;4.78;;;43.60;29.90;;;;;;10223608;28;20727;-75
2023/06/25 08:22:31;;;;;;;6.28;5.32;;;42.50;30.70;;;;;;10226962;28;20322;-76
2023/06/25 08:27:31;;;;;;;5.07;4.68;;;43.70;30.10;;;;;;10219919;28;20292;-76
2023/06/25 08:32:32;;;;;;;17.27;5.15;;;43.40;30.90;;;;;;10226359;28;20227;-76
2023/06/25 08:37:33;;;;;;;4.90;4.45;;;45.00;29.50;;;;;;10220020;28;20311;-76
2023/06/25 08:42:34;;;;;;;5.75;5.35;;;46.80;28.00;;;;;;10226772;28;20288;-75
2023/06/25 08:47:38;;;;;;;8.20;4.93;;;45.50;28.20;;;;;;10225698;28;20224;-75
2023/06/25 08:52:39;;;;;;;5.00;4.50;;;42.60;30.10;;;;;;10235199;28;20724;-75
2023/06/25 08:57:40;;;;;;;4.90;4.50;;;42.10;29.90;;;;;;10218305;28;20232;-76
2023/06/25 09:02:41;;;;;;;4.75;4.35;;;43.50;29.00;;;;;;10219091;28;20537;-75
2023/06/25 09:07:43;;;;;;;4.20;3.83;;;42.40;29.40;;;;;;10232107;28;20220;-76
2023/06/25 09:12:48;;;;;;;4.10;3.70;;;44.40;27.40;;;;;;10227359;28;20223;-75
2023/06/25 09:17:55;;;;;;;4.72;4.07;;;43.60;28.20;;;;;;10228284;28;20310;-75
2023/06/25 09:22:57;;;;;;;3.80;3.50;;;42.80;28.70;;;;;;10228233;28;20583;-75
2023/06/25 09:28:03;;;;;;;4.13;3.78;;;42.50;29.70;;;;;;10227048;28;20240;-75
2023/06/25 09:33:05;;;;;;;5.38;4.10;;;42.40;28.90;;;;;;10220687;28;20228;-75
2023/06/25 09:38:06;;;;;;;4.82;4.43;;;41.40;29.40;;;;;;10228614;28;20649;-75
2023/06/25 09:43:08;;;;;;;4.95;4.45;;;41.40;29.80;;;;;;10232455;28;20332;-74
2023/06/25 09:48:09;;;;;;;5.60;5.00;;;40.00;29.40;;;;;;10235603;28;20942;-75
2023/06/25 09:53:18;;;;;;;4.70;4.30;;;39.20;31.60;;;;;;10220706;28;20607;-75
2023/06/25 09:58:19;;;;;;;5.30;3.88;;;42.90;29.10;;;;;;10232479;28;20235;-75
2023/06/25 10:03:21;;;;;;;4.50;4.00;;;44.40;27.10;;;;;;10223063;28;20243;-75
2023/06/25 10:08:22;;;;;;;4.40;4.03;;;41.70;28.40;;;;;;10234500;28;20223;-74
2023/06/25 10:13:23;;;;;;;4.57;4.15;;;42.20;28.30;;;;;;10232628;28;20250;-72
2023/06/25 10:18:24;;;;;;;4.53;4.13;;;42.20;28.20;;;;;;10223585;28;20842;-71
2023/06/25 10:23:25;;;;;;;4.53;4.17;;;41.40;28.20;;;;;;10228670;28;20226;-71
2023/06/25 10:28:31;;;;;;;4.87;4.33;;;40.60;29.10;;;;;;10230374;28;20695;-71
2023/06/25 10:33:31;;;;;;;4.70;4.23;;;39.60;30.80;;;;;;10218846;28;20224;-71
2023/06/25 10:38:32;;;;;;;4.00;3.65;;;42.70;28.90;;;;;;10222916;28;20764;-71
2023/06/25 10:43:37;;;;;;;4.63;4.20;;;43.90;26.40;;;;;;10221614;28;20235;-72
2023/06/25 10:48:45;;;;;;;4.70;4.10;;;44.90;26.30;;;;;;10217546;28;20315;-71
2023/06/25 10:53:47;;;;;;;4.00;3.70;;;42.90;27.50;;;;;;10222748;28;20223;-71
2023/06/25 10:58:56;;;;;;;4.43;4.00;;;41.10;28.90;;;;;;10217905;28;20235;-71
2023/06/25 11:03:56;;;;;;;5.70;4.30;;;41.50;28.80;;;;;;10234288;28;20310;-71
2023/06/25 11:08:58;;;;;;;4.38;4.07;;;41.70;28.10;;;;;;10225247;28;20219;-71
2023/06/25 11:14:00;;;;;;;5.85;4.10;;;42.30;29.10;;;;;;10217930;28;20231;-71
2023/06/25 11:19:01;;;;;;;4.53;4.22;;;44.90;26.50;;;;;;10231574;28;20235;-71
2023/06/25 11:24:08;;;;;;;4.55;3.80;;;44.30;26.60;;;;;;10217433;28;20737;-71
2023/06/25 11:29:10;;;;;;;4.20;3.90;;;42.60;27.20;;;;;;10217091;28;20239;-71
2023/06/25 11:34:23;;;;;;;4.10;3.80;;;40.60;28.70;;;;;;10224662;28;20287;-71
2023/06/25 11:39:24;;;;;;;3.87;3.57;;;41.10;28.90;;;;;;10231508;28;20799;-70
2023/06/25 11:44:24;;;;;;;4.07;3.73;;;40.60;29.20;;;;;;10221678;28;20231;-72
2023/06/25 11:49:25;;;;;;;5.13;4.63;;;37.30;32.50;;;;;;10223580;28;20216;-70
2023/06/25 11:54:26;;;;;;;7.17;4.87;;;35.00;35.90;;;;;;10221323;28;20223;-69
2023/06/25 11:59:28;;;;;;;4.70;4.30;;;33.40;38.00;;;;;;10224468;28;20235;-71
2023/06/25 12:04:28;;;;;;;4.30;4.00;;;33.10;38.90;;;;;;10238364;28;20289;-72
2023/06/25 12:09:30;;;;;;;5.10;4.60;;;32.70;39.40;;;;;;10219756;28;20273;-72
2023/06/25 12:14:31;;;;;;;4.87;4.47;;;32.70;39.70;;;;;;10223154;28;20227;-70
2023/06/25 12:19:32;;;;;;;5.13;4.50;;;32.90;38.70;;;;;;10220509;28;20715;-71
2023/06/25 12:24:32;;;;;;;4.57;4.17;;;32.30;39.20;;;;;;10220475;28;20239;-71
2023/06/25 12:29:33;;;;;;;4.87;4.43;;;31.90;40.30;;;;;;10219637;28;20226;-71
2023/06/25 12:34:33;;;;;;;4.63;4.27;;;31.90;40.70;;;;;;10218398;28;20238;-71
2023/06/25 12:39:34;;;;;;;4.63;4.07;;;31.90;40.50;;;;;;10221479;28;20226;-72
2023/06/25 12:44:35;;;;;;;4.53;4.13;;;31.70;39.90;;;;;;10225054;28;20234;-71
2023/06/25 12:49:35;;;;;;;5.83;4.77;;;31.70;40.00;;;;;;10225738;28;20227;-69
2023/06/25 12:54:36;;;;;;;4.40;4.00;;;31.50;40.00;;;;;;10224565;28;20302;-70
2023/06/25 12:59:37;;;;;;;4.67;4.07;;;31.70;39.40;;;;;;10232609;28;20223;-70
2023/06/25 13:04:38;;;;;;;6.70;4.60;;;31.30;40.00;;;;;;10237381;28;20773;-70
2023/06/25 13:09:38;;;;;;;4.60;4.03;;;31.30;40.50;;;;;;10246135;28;20214;-70
2023/06/25 13:14:39;;;;;;;4.67;4.27;;;31.30;40.60;;;;;;10230129;28;20310;-71
2023/06/25 13:19:39;;;;;;;4.90;4.50;;;31.10;40.80;;;;;;10225538;28;20698;-70
2023/06/25 13:24:41;;;;;;;6.63;4.40;;;30.90;41.20;;;;;;10223901;28;20636;-70
2023/06/25 13:29:42;;;;;;;5.40;4.57;;;30.80;41.90;;;;;;10224525;28;20817;-71
2023/06/25 13:34:45;;;;;;;5.63;4.80;;;30.60;42.00;;;;;;10231646;28;20222;-71
2023/06/25 13:39:46;;;;;;;4.77;4.37;;;30.60;42.10;;;;;;10222470;28;20228;-71
2023/06/25 13:44:46;;;;;;;4.37;4.07;;;30.70;42.00;;;;;;10233921;28;20215;-72
2023/06/25 13:49:47;;;;;;;4.77;4.37;;;30.90;41.40;;;;;;10225759;28;20223;-71
2023/06/25 13:54:48;;;;;;;5.00;4.37;;;31.10;41.10;;;;;;10233810;28;20926;-71
2023/06/25 13:59:48;;;;;;;4.50;4.10;;;31.30;40.80;;;;;;10227310;28;20211;-71
2023/06/25 14:04:49;;;;;;;5.67;4.13;;;31.10;41.00;;;;;;10221356;28;20220;-71
2023/06/25 14:09:49;;;;;;;41.07;6.07;;;31.30;40.90;;;;;;10226343;28;20210;-71
2023/06/25 14:14:50;;;;;;;5.33;4.20;;;31.50;40.90;;;;;;10241268;28;20216;-71
2023/06/25 14:19:50;;;;;;;4.60;4.20;;;31.40;41.60;;;;;;10227201;28;20220;-71
2023/06/25 14:24:51;;;;;;;4.97;4.57;;;31.50;40.70;;;;;;10232169;28;20250;-70
2023/06/25 14:29:52;;;;;;;4.50;4.10;;;31.30;41.90;;;;;;10220392;28;20617;-71
2023/06/25 14:34:52;;;;;;;6.50;4.47;;;31.30;42.20;;;;;;10225318;28;20223;-71
2023/06/25 14:39:56;;;;;;;5.57;4.33;;;31.20;41.70;;;;;;10226291;28;20208;-71
2023/06/25 14:45:03;;;;;;;4.83;4.30;;;31.20;41.10;;;;;;10232261;28;20632;-71
2023/06/25 14:50:04;;;;;;;5.07;4.47;;;31.00;41.40;;;;;;10226019;28;20231;-71
2023/06/25 14:55:05;;;;;;;5.77;4.77;;;31.00;41.70;;;;;;10218716;28;20347;-71
2023/06/25 15:00:06;;;;;;;4.70;4.30;;;31.10;41.80;;;;;;10258655;28;20204;-71
2023/06/25 15:05:07;;;;;;;5.57;4.57;;;31.20;41.90;;;;;;10225351;28;20617;-71
2023/06/25 15:10:08;;;;;;;4.67;4.27;;;31.10;41.60;;;;;;10218757;28;20217;-71
2023/06/25 15:15:09;;;;;;;4.53;4.10;;;31.10;41.60;;;;;;10225361;28;20183;-71
2023/06/25 15:20:10;;;;;;;5.13;4.73;;;31.20;41.50;;;;;;10217858;28;20606;-71
2023/06/25 15:25:10;;;;;;;4.63;4.30;;;31.20;41.90;;;;;;10233199;28;20558;-72
2023/06/25 15:30:11;;;;;;;6.00;4.33;;;31.20;42.10;;;;;;10218724;28;20188;-70
2023/06/25 15:35:12;;;;;;;5.00;4.60;;;30.90;41.90;;;;;;10222480;28;20192;-72
2023/06/25 15:40:15;;;;;;;4.67;4.27;;;30.80;42.30;;;;;;10225011;28;20203;-70
2023/06/25 15:45:16;;;;;;;6.37;4.50;;;30.90;42.50;;;;;;10225198;28;20702;-71
2023/06/25 15:50:17;;;;;;;4.60;4.20;;;30.90;42.40;;;;;;10224106;28;20636;-70
2023/06/25 15:55:23;;;;;;;4.10;3.80;;;31.00;42.00;;;;;;10235523;28;20211;-71
2023/06/25 16:00:23;;;;;;;4.87;4.47;;;31.10;42.00;;;;;;10218594;28;20218;-71
2023/06/25 16:05:25;;;;;;;4.87;4.47;;;30.90;41.30;;;;;;10231761;28;20212;-70
2023/06/25 16:10:28;;;;;;;4.60;4.13;;;30.90;41.70;;;;;;10218665;28;20191;-71
2023/06/25 16:15:28;;;;;;;5.07;4.63;;;30.80;43.10;;;;;;10223519;28;20226;-71
2023/06/25 16:20:29;;;;;;;6.03;4.50;;;30.70;42.80;;;;;;10232940;28;20589;-72
2023/06/25 16:25:29;;;;;;;6.57;4.20;;;30.60;42.80;;;;;;10234193;28;20301;-70
2023/06/25 16:30:30;;;;;;;4.90;4.50;;;30.60;43.00;;;;;;10225700;28;20633;-69
2023/06/25 16:35:31;;;;;;;4.57;4.27;;;30.50;42.90;;;;;;10226597;28;20251;-71
2023/06/25 16:40:31;;;;;;;7.07;4.77;;;30.50;43.20;;;;;;10225610;28;20958;-71
2023/06/25 16:45:32;;;;;;;4.53;4.13;;;30.40;43.10;;;;;;10225769;28;20699;-72
2023/06/25 16:50:33;;;;;;;6.00;4.60;;;30.30;44.60;;;;;;10227191;28;20355;-70
2023/06/25 16:55:33;;;;;;;5.07;4.60;;;30.20;43.90;;;;;;10236321;28;20309;-71
2023/06/25 17:00:39;;;;;;;4.80;4.30;;;30.10;44.10;;;;;;10229341;28;20761;-71
2023/06/25 17:05:42;;;;;;;4.63;4.07;;;30.20;44.20;;;;;;10224434;28;20224;-70
2023/06/25 17:10:43;;;;;;;4.80;4.20;;;30.20;44.10;;;;;;10244062;28;20229;-71
2023/06/25 17:15:43;;;;;;;5.73;4.50;;;30.10;44.60;;;;;;10234518;28;20705;-72
2023/06/25 17:20:44;;;;;;;5.67;4.63;;;30.10;44.70;;;;;;10225055;28;20227;-71
2023/06/25 17:25:44;;;;;;;5.03;4.53;;;30.00;44.70;;;;;;10219245;28;20223;-72
2023/06/25 17:30:45;;;;;;;4.63;4.17;;;30.00;45.20;;;;;;10234975;28;20241;-70
2023/06/25 17:35:46;;;;;;;4.47;3.83;;;29.90;45.00;;;;;;10222621;28;20303;-70
2023/06/25 17:40:46;;;;;;;4.90;4.07;;;29.80;45.00;;;;;;10218791;28;20272;-70
2023/06/25 17:45:47;;;;;;;4.77;4.27;;;29.70;45.30;;;;;;10226014;28;20276;-70
2023/06/25 17:50:47;;;;;;;4.93;4.40;;;29.60;45.60;;;;;;10229215;28;20223;-71
2023/06/25 17:55:48;;;;;;;4.60;4.20;;;29.50;45.90;;;;;;10231669;28;20243;-71
2023/06/25 18:00:48;;;;;;;4.97;4.47;;;29.50;45.90;;;;;;10233358;28;20607;-71
2023/06/25 18:05:49;;;;;;;6.30;3.87;;;29.50;46.20;;;;;;10232046;28;20219;-71
2023/06/25 18:10:52;;;;;;;4.63;4.10;;;29.40;46.20;;;;;;10225783;28;20853;-70
2023/06/25 18:15:53;;;;;;;4.80;4.40;;;29.40;46.70;;;;;;10226752;28;20797;-70
2023/06/25 18:20:53;;;;;;;6.50;4.67;;;29.30;47.10;;;;;;10233852;28;20231;-71
2023/06/25 18:25:54;;;;;;;4.77;4.37;;;29.20;47.50;;;;;;10218817;28;20239;-71
2023/06/25 18:31:01;;;;;;;5.23;4.07;;;29.10;48.20;;;;;;10227514;28;20770;-71
2023/06/25 18:36:02;;;;;;;4.73;4.33;;;29.10;48.50;;;;;;10226710;28;20227;-71
2023/06/25 18:41:03;;;;;;;5.63;4.67;;;29.00;48.90;;;;;;10218790;28;20703;-70
2023/06/25 18:46:03;;;;;;;7.70;4.60;;;28.90;49.10;;;;;;10219163;28;20318;-70
2023/06/25 18:51:04;;;;;;;5.50;4.90;;;28.80;49.80;;;;;;10231300;28;20231;-70
2023/06/25 18:56:04;;;;;;;7.93;4.73;;;28.70;50.50;;;;;;10225512;28;20256;-70
2023/06/25 19:01:05;;;;;;;6.03;4.60;;;28.60;50.50;;;;;;10231816;28;20235;-71
2023/06/25 19:06:06;;;;;;;6.13;4.83;;;28.50;51.10;;;;;;10239456;28;20226;-71
2023/06/25 19:11:06;;;;;;;6.40;4.87;;;28.30;51.10;;;;;;10231270;28;20216;-71
2023/06/25 19:16:07;;;;;;;6.77;4.93;;;28.20;51.40;;;;;;10216815;28;20245;-70
2023/06/25 19:21:08;;;;;;;6.60;4.67;;;28.10;51.70;;;;;;10217624;28;20263;-71
2023/06/25 19:26:08;;;;;;;5.43;5.03;;;28.00;52.10;;;;;;10223947;28;20279;-70
2023/06/25 19:31:09;;;;;;;6.27;5.20;;;27.90;52.50;;;;;;10217372;28;20228;-71
2023/06/25 19:36:11;;;;;;;7.03;5.20;;;27.80;53.10;;;;;;10223595;28;20609;-72
2023/06/25 19:41:11;;;;;;;6.73;5.07;;;27.70;53.60;;;;;;10230505;28;20231;-71
2023/06/25 19:46:12;;;;;;;5.80;5.20;;;27.50;53.70;;;;;;10224238;28;20896;-70
2023/06/25 19:51:13;;;;;;;6.13;5.40;;;27.40;54.00;;;;;;10224111;28;20222;-71
2023/06/25 19:56:14;;;;;;;5.70;5.17;;;27.30;54.30;;;;;;10222357;28;20269;-71
2023/06/25 20:01:14;;;;;;;7.00;5.27;;;27.20;54.60;;;;;;10223801;28;20241;-71
2023/06/25 20:06:15;;;;;;;5.90;4.80;;;27.20;54.90;;;;;;10221404;28;20210;-71
2023/06/25 20:11:16;;;;;;;6.03;5.17;;;27.00;55.10;;;;;;10229941;28;20235;-71
2023/06/25 20:16:16;;;;;;;5.63;5.13;;;27.00;55.40;;;;;;10230612;28;20258;-71
2023/06/25 20:21:17;;;;;;;5.80;5.20;;;26.80;55.60;;;;;;10222597;28;20223;-70
2023/06/25 20:26:17;;;;;;;5.57;5.07;;;26.70;55.90;;;;;;10219617;28;20244;-70
2023/06/25 20:31:18;;;;;;;5.87;5.27;;;26.50;56.30;;;;;;10224766;28;20572;-70
2023/06/25 20:36:19;;;;;;;5.97;5.40;;;26.50;56.50;;;;;;10221866;28;20783;-71
2023/06/25 20:41:19;;;;;;;5.60;5.00;;;26.40;56.70;;;;;;10223674;28;20214;-69
2023/06/25 20:46:20;;;;;;;6.33;4.77;;;26.30;56.80;;;;;;10229241;28;20227;-71
2023/06/25 20:51:20;;;;;;;5.70;5.17;;;26.20;57.10;;;;;;10227712;28;20223;-70
2023/06/25 20:56:21;;;;;;;5.43;4.93;;;26.10;57.00;;;;;;10217431;28;20239;-70
2023/06/25 21:01:21;;;;;;;5.80;5.30;;;26.00;57.00;;;;;;10226892;28;20231;-71
2023/06/25 21:06:22;;;;;;;5.57;5.07;;;26.00;57.10;;;;;;10226916;28;20672;-70
2023/06/25 21:11:24;;;;;;;5.50;5.00;;;25.90;57.30;;;;;;10223304;28;20223;-71
2023/06/25 21:16:25;;;;;;;6.30;5.17;;;25.90;57.40;;;;;;10234942;28;20273;-70
2023/06/25 21:21:25;;;;;;;5.50;5.00;;;25.80;57.70;;;;;;10226777;28;20282;-70
2023/06/25 21:26:26;;;;;;;5.77;5.27;;;25.80;57.80;;;;;;10223204;28;20306;-71
2023/06/25 21:31:26;;;;;;;4.67;4.27;;;25.70;57.80;;;;;;10231254;28;20225;-71
2023/06/25 21:36:27;;;;;;;5.80;4.47;;;25.60;57.70;;;;;;10225405;28;20227;-70
2023/06/25 21:41:27;;;;;;;5.23;4.73;;;25.60;58.00;;;;;;10221294;28;20613;-70
2023/06/25 21:46:28;;;;;;;5.50;4.83;;;25.50;58.00;;;;;;10236909;28;20219;-70
2023/06/25 21:51:29;;;;;;;4.73;4.30;;;25.40;57.90;;;;;;10224868;28;20231;-71
2023/06/25 21:56:29;;;;;;;5.27;4.77;;;25.50;57.50;;;;;;10223094;28;20321;-71
2023/06/25 22:01:30;;;;;;;4.23;3.93;;;25.60;57.30;;;;;;10220872;28;20234;-71
2023/06/25 22:06:31;;;;;;;4.80;4.33;;;25.60;57.00;;;;;;10236153;28;20226;-72
2023/06/25 22:11:31;;;;;;;4.77;4.37;;;25.60;56.80;;;;;;10229472;28;20286;-71
2023/06/25 22:16:32;;;;;;;5.07;4.33;;;25.60;56.70;;;;;;10224096;28;20237;-71
2023/06/25 22:21:32;;;;;;;4.40;4.00;;;25.60;56.60;;;;;;10228072;28;20232;-72
2023/06/25 22:26:33;;;;;;;4.70;4.30;;;25.60;56.60;;;;;;10230176;28;20216;-72
2023/06/25 22:31:33;;;;;;;4.70;4.30;;;25.50;56.60;;;;;;10226675;28;20268;-70
2023/06/25 22:36:34;;;;;;;4.60;4.20;;;25.50;56.60;;;;;;10222900;28;20573;-71
2023/06/25 22:41:35;;;;;;;4.83;4.43;;;25.40;56.60;;;;;;10223016;28;20314;-71
2023/06/25 22:46:35;;;;;;;4.57;4.17;;;25.40;56.70;;;;;;10226929;28;20227;-70
2023/06/25 22:51:40;;;;;;;4.87;4.47;;;25.30;56.90;;;;;;10235149;28;20226;-70
2023/06/25 22:56:43;;;;;;;4.30;4.00;;;25.20;57.10;;;;;;10221215;28;20232;-71
2023/06/25 23:01:45;;;;;;;4.80;4.37;;;25.00;58.00;;;;;;10223634;28;20242;-71
2023/06/25 23:06:45;;;;;;;4.87;4.47;;;24.90;58.70;;;;;;10226594;28;20570;-70
2023/06/25 23:11:46;;;;;;;5.00;4.60;;;24.70;59.10;;;;;;10218610;28;20224;-70
2023/06/25 23:16:46;;;;;;;4.70;4.30;;;24.50;59.60;;;;;;10242041;28;20306;-70
2023/06/25 23:21:48;;;;;;;5.00;4.47;;;24.40;60.00;;;;;;10226484;28;20227;-70
2023/06/25 23:26:48;;;;;;;5.10;4.63;;;24.30;61.00;;;;;;10219419;28;20711;-70
2023/06/25 23:31:49;;;;;;;4.90;4.50;;;24.10;62.80;;;;;;10230975;28;20220;-70
2023/06/25 23:36:49;;;;;;;5.17;4.67;;;23.90;64.20;;;;;;10225351;28;20237;-69
2023/06/25 23:41:50;;;;;;;5.20;4.53;;;23.70;65.00;;;;;;10227359;28;20239;-71
2023/06/25 23:46:50;;;;;;;5.00;4.50;;;23.60;65.20;;;;;;10231520;28;20219;-69
2023/06/25 23:51:51;;;;;;;5.33;4.90;;;23.40;65.50;;;;;;10224737;28;20331;-70
2023/06/25 23:56:51;;;;;;;4.97;4.47;;;23.30;66.20;;;;;;10223148;28;20235;-71
